Time;durP1;ratioP1;P1;durP2;ratioP2;P2;SDS_P1;SDS_P2;PMS_P1;PMS_P2;Temp;Humidity;BMP_temperature;BMP_pressure;BME280_temperature;BME280_humidity;BME280_pressure;Samples;Min_cycle;Max_cycle;Signal;HPM_P1;HPM_P2
2022/07/16 00:01:23;;;;;;;2.22;1.58;;;;;;;;;;4361321;32;20229;-82
2022/07/16 00:04:07;;;;;;;3.62;1.80;;;;;;;;;;4347395;32;20646;-84
2022/07/16 00:06:33;;;;;;;5.40;2.72;;;;;;;;;;4361628;32;20551;-82
2022/07/16 00:08:59;;;;;;;7.40;2.30;;;;;;;;;;4360024;32;20616;-83
2022/07/16 00:11:25;;;;;;;2.28;1.58;;;;;;;;;;4361505;32;20336;-82
2022/07/16 00:13:51;;;;;;;2.00;1.75;;;;;;;;;;4346578;32;20635;-83
2022/07/16 00:16:17;;;;;;;3.10;2.08;;;;;;;;;;4361289;32;20612;-83
2022/07/16 00:21:28;;;;;;;2.95;1.80;;;;;;;;;;4361359;32;20233;-83
2022/07/16 00:23:54;;;;;;;2.22;1.65;;;;;;;;;;4360947;32;20574;-82
2022/07/16 00:26:20;;;;;;;4.60;1.80;;;;;;;;;;4360874;32;20254;-83
2022/07/16 00:28:46;;;;;;;6.82;2.62;;;;;;;;;;4359941;32;20674;-83
2022/07/16 00:31:12;;;;;;;7.65;2.15;;;;;;;;;;4361151;32;20594;-82
2022/07/16 00:33:38;;;;;;;6.53;2.58;;;;;;;;;;4361092;32;20595;-83
2022/07/16 00:36:07;;;;;;;19.52;8.07;;;;;;;;;;4360320;32;20626;-82
2022/07/16 00:38:33;;;;;;;19.85;9.30;;;;;;;;;;4360913;32;20575;-83
2022/07/16 00:40:59;;;;;;;20.00;6.28;;;;;;;;;;4361046;32;20306;-84
2022/07/16 00:43:25;;;;;;;15.48;4.78;;;;;;;;;;4360997;32;20814;-82
2022/07/16 00:45:51;;;;;;;8.65;3.92;;;;;;;;;;4360823;32;20191;-83
2022/07/16 00:48:17;;;;;;;7.43;2.72;;;;;;;;;;4347132;32;20222;-84
2022/07/16 00:50:43;;;;;;;6.62;2.87;;;;;;;;;;4347109;32;20244;-83
2022/07/16 00:53:10;;;;;;;3.08;1.90;;;;;;;;;;4360473;32;20677;-82
2022/07/16 00:55:36;;;;;;;6.68;2.60;;;;;;;;;;4360595;32;20615;-82
2022/07/16 00:58:02;;;;;;;4.82;2.20;;;;;;;;;;4360531;32;20540;-82
2022/07/16 01:00:29;;;;;;;9.13;2.22;;;;;;;;;;4360540;32;20376;-82
2022/07/16 01:02:56;;;;;;;4.87;2.45;;;;;;;;;;4360429;32;20759;-81
2022/07/16 01:05:22;;;;;;;3.25;1.75;;;;;;;;;;4360445;32;20588;-84
2022/07/16 01:07:48;;;;;;;3.67;2.10;;;;;;;;;;4360520;32;20632;-82
2022/07/16 01:10:14;;;;;;;3.47;2.58;;;;;;;;;;4359357;32;20229;-83
2022/07/16 01:12:41;;;;;;;2.85;2.10;;;;;;;;;;4360204;32;20211;-82
2022/07/16 01:15:08;;;;;;;7.82;2.80;;;;;;;;;;4360340;32;20616;-83
2022/07/16 01:17:34;;;;;;;5.75;3.00;;;;;;;;;;4360188;32;20580;-82
2022/07/16 01:20:00;;;;;;;8.52;2.12;;;;;;;;;;4346524;32;20627;-82
2022/07/16 01:22:26;;;;;;;6.62;2.70;;;;;;;;;;4346413;32;20625;-82
2022/07/16 01:24:53;;;;;;;8.00;3.42;;;;;;;;;;4358817;32;20275;-82
2022/07/16 01:27:20;;;;;;;5.90;2.67;;;;;;;;;;4360033;32;20547;-83
2022/07/16 01:29:48;;;;;;;6.57;3.95;;;;;;;;;;4359054;32;20600;-82
2022/07/16 01:32:13;;;;;;;14.95;5.93;;;;;;;;;;4360178;32;20693;-83
2022/07/16 01:34:39;;;;;;;15.85;6.25;;;;;;;;;;4358970;32;20245;-82
2022/07/16 01:37:07;;;;;;;25.83;9.80;;;;;;;;;;4360135;32;20331;-84
2022/07/16 01:39:35;;;;;;;22.50;10.27;;;;;;;;;;4359982;32;20707;-84
2022/07/16 01:42:03;;;;;;;15.85;7.35;;;;;;;;;;4359952;32;20606;-85
2022/07/16 01:44:31;;;;;;;24.10;9.90;;;;;;;;;;4346257;32;20572;-82
2022/07/16 01:46:59;;;;;;;32.38;11.27;;;;;;;;;;4359670;32;20606;-83
2022/07/16 01:49:29;;;;;;;34.50;10.32;;;;;;;;;;4360013;32;20521;-82
2022/07/16 01:51:55;;;;;;;31.02;11.50;;;;;;;;;;4359896;32;20663;-83
2022/07/16 01:54:22;;;;;;;27.55;10.32;;;;;;;;;;4359789;32;20237;-82
2022/07/16 01:56:49;;;;;;;17.90;7.82;;;;;;;;;;4359811;32;20610;-83
2022/07/16 01:59:14;;;;;;;19.37;6.87;;;;;;;;;;4358747;32;20611;-84
2022/07/16 02:01:40;;;;;;;19.85;7.43;;;;;;;;;;4359720;32;20251;-82
2022/07/16 02:04:06;;;;;;;8.32;4.53;;;;;;;;;;4358475;32;20284;-82
2022/07/16 02:06:32;;;;;;;7.05;3.10;;;;;;;;;;4359619;32;20195;-82
2022/07/16 02:08:58;;;;;;;7.40;3.70;;;;;;;;;;4358274;32;20248;-83
2022/07/16 02:11:24;;;;;;;4.37;3.42;;;;;;;;;;4359535;32;20554;-82
2022/07/16 02:13:50;;;;;;;4.55;3.05;;;;;;;;;;4359574;32;20329;-82
2022/07/16 02:16:15;;;;;;;8.02;2.85;;;;;;;;;;4359700;32;20331;-82
2022/07/16 02:18:41;;;;;;;4.03;2.10;;;;;;;;;;4359438;32;20317;-82
2022/07/16 02:21:07;;;;;;;5.60;2.62;;;;;;;;;;4359775;32;20210;-82
2022/07/16 02:23:33;;;;;;;3.78;2.83;;;;;;;;;;4359387;32;20223;-83
2022/07/16 02:25:58;;;;;;;6.70;2.80;;;;;;;;;;4359357;32;20326;-82
2022/07/16 02:28:24;;;;;;;4.75;3.17;;;;;;;;;;4359520;32;20218;-82
2022/07/16 02:30:50;;;;;;;3.90;2.45;;;;;;;;;;4358528;32;20604;-84
2022/07/16 02:33:18;;;;;;;3.53;2.15;;;;;;;;;;4345661;32;20282;-84
2022/07/16 02:35:44;;;;;;;8.30;3.58;;;;;;;;;;4359360;32;20580;-83
2022/07/16 02:38:11;;;;;;;7.40;2.35;;;;;;;;;;4359431;32;20635;-83
2022/07/16 02:40:38;;;;;;;6.05;2.03;;;;;;;;;;4359713;32;20620;-83
2022/07/16 02:43:07;;;;;;;6.20;3.00;;;;;;;;;;4359829;32;20557;-84
2022/07/16 02:45:35;;;;;;;10.07;3.55;;;;;;;;;;4359607;32;20654;-83
2022/07/16 02:48:03;;;;;;;16.55;8.98;;;;;;;;;;4345900;32;20642;-83
2022/07/16 02:50:31;;;;;;;26.85;12.75;;;;;;;;;;4359466;32;20627;-82
2022/07/16 02:52:58;;;;;;;25.17;11.32;;;;;;;;;;4359448;33;20634;-82
2022/07/16 02:55:26;;;;;;;30.75;14.45;;;;;;;;;;4359189;33;20253;-82
2022/07/16 02:57:53;;;;;;;23.52;11.75;;;;;;;;;;4359680;33;20580;-84
2022/07/16 03:00:20;;;;;;;29.90;13.27;;;;;;;;;;4359763;33;20595;-83
2022/07/16 03:02:46;;;;;;;52.60;20.88;;;;;;;;;;4359980;33;20688;-82
2022/07/16 03:05:14;;;;;;;56.15;25.23;;;;;;;;;;4360244;33;20666;-83
2022/07/16 03:07:40;;;;;;;46.37;22.58;;;;;;;;;;4360424;33;20550;-84
2022/07/16 03:10:07;;;;;;;78.12;28.25;;;;;;;;;;4359706;33;20615;-82
2022/07/16 03:12:34;;;;;;;62.42;27.13;;;;;;;;;;4359102;33;20686;-82
2022/07/16 03:15:03;;;;;;;66.28;22.35;;;;;;;;;;4358851;33;20617;-83
2022/07/16 03:17:29;;;;;;;59.28;24.50;;;;;;;;;;4358801;33;20643;-83
2022/07/16 03:19:55;;;;;;;52.95;23.75;;;;;;;;;;4358782;33;20611;-81
2022/07/16 03:22:21;;;;;;;56.85;20.77;;;;;;;;;;4358918;33;20225;-83
2022/07/16 03:24:47;;;;;;;50.10;20.45;;;;;;;;;;4358910;33;20276;-83
2022/07/16 03:27:14;;;;;;;50.75;19.02;;;;;;;;;;4359041;33;20508;-82
2022/07/16 03:29:40;;;;;;;51.40;19.75;;;;;;;;;;4358721;33;20217;-82
2022/07/16 03:32:07;;;;;;;21.67;9.73;;;;;;;;;;4358840;33;20591;-83
2022/07/16 03:34:32;;;;;;;19.83;9.05;;;;;;;;;;4357566;33;20672;-82
2022/07/16 03:36:58;;;;;;;12.68;6.93;;;;;;;;;;4358962;33;20190;-82
2022/07/16 03:39:25;;;;;;;15.23;6.70;;;;;;;;;;4358843;33;20595;-83
2022/07/16 03:41:51;;;;;;;16.30;6.50;;;;;;;;;;4358700;33;20561;-82
2022/07/16 03:44:17;;;;;;;12.00;4.62;;;;;;;;;;4344499;33;20234;-84
2022/07/16 03:46:43;;;;;;;8.82;4.55;;;;;;;;;;4345046;33;20214;-83
2022/07/16 03:49:09;;;;;;;12.82;4.32;;;;;;;;;;4360425;32;20225;-83
2022/07/16 03:51:35;;;;;;;11.48;3.97;;;;;;;;;;4361496;32;20209;-82
2022/07/16 03:54:03;;;;;;;7.78;4.62;;;;;;;;;;4361376;32;20531;-82
2022/07/16 03:56:29;;;;;;;15.90;5.37;;;;;;;;;;4361159;32;20600;-81
2022/07/16 03:58:55;;;;;;;13.15;6.62;;;;;;;;;;4361184;32;20210;-81
2022/07/16 04:01:21;;;;;;;16.25;7.20;;;;;;;;;;4361106;32;20290;-83
2022/07/16 04:03:47;;;;;;;14.57;6.22;;;;;;;;;;4360267;32;20658;-82
2022/07/16 04:06:13;;;;;;;8.98;4.60;;;;;;;;;;4361062;32;20604;-81
2022/07/16 04:08:39;;;;;;;13.25;5.07;;;;;;;;;;4361426;32;20260;-82
2022/07/16 04:11:04;;;;;;;9.85;4.75;;;;;;;;;;4359842;32;20272;-82
2022/07/16 04:13:30;;;;;;;12.70;5.85;;;;;;;;;;4361173;32;20221;-81
2022/07/16 04:15:56;;;;;;;14.02;5.30;;;;;;;;;;4360976;32;20248;-83
2022/07/16 04:18:22;;;;;;;11.90;5.12;;;;;;;;;;4360876;32;20241;-81
2022/07/16 04:20:48;;;;;;;10.50;4.30;;;;;;;;;;4360712;32;20227;-83
2022/07/16 04:23:14;;;;;;;17.95;5.75;;;;;;;;;;4347227;32;20571;-82
2022/07/16 04:25:41;;;;;;;8.20;4.22;;;;;;;;;;4360754;32;20677;-80
2022/07/16 04:28:07;;;;;;;15.93;4.75;;;;;;;;;;4361129;32;20612;-81
2022/07/16 04:30:33;;;;;;;14.98;5.25;;;;;;;;;;4360601;32;20340;-81
2022/07/16 04:32:58;;;;;;;10.00;4.50;;;;;;;;;;4360875;32;20657;-81
2022/07/16 04:35:24;;;;;;;10.23;5.32;;;;;;;;;;4360735;32;20301;-81
2022/07/16 04:37:50;;;;;;;17.80;5.70;;;;;;;;;;4359437;32;20218;-82
2022/07/16 04:40:16;;;;;;;9.73;5.18;;;;;;;;;;4360654;32;20297;-81
2022/07/16 04:42:44;;;;;;;14.82;5.43;;;;;;;;;;4361374;32;20631;-82
2022/07/16 04:45:11;;;;;;;12.98;4.75;;;;;;;;;;4360418;32;20651;-82
2022/07/16 04:47:38;;;;;;;13.13;5.22;;;;;;;;;;4360559;32;20182;-83
2022/07/16 04:50:04;;;;;;;16.50;6.43;;;;;;;;;;4360547;32;20596;-81
2022/07/16 04:52:30;;;;;;;18.10;8.75;;;;;;;;;;4360647;32;20619;-81
2022/07/16 04:54:57;;;;;;;17.77;8.95;;;;;;;;;;4360313;32;20283;-81
2022/07/16 04:57:24;;;;;;;46.00;20.58;;;;;;;;;;4360311;32;20619;-82
2022/07/16 04:59:50;;;;;;;54.10;20.75;;;;;;;;;;4359663;32;20713;-81
2022/07/16 05:05:00;;;;;;;23.92;14.20;;;;;;;;;;4360203;32;20280;-82
2022/07/16 05:07:26;;;;;;;31.20;11.45;;;;;;;;;;4360133;32;20607;-81
2022/07/16 05:09:52;;;;;;;14.60;8.10;;;;;;;;;;4360273;32;20280;-80
2022/07/16 05:12:17;;;;;;;16.27;7.43;;;;;;;;;;4360429;32;20182;-80
2022/07/16 05:14:43;;;;;;;10.85;5.78;;;;;;;;;;4360209;32;20253;-80
2022/07/16 05:17:09;;;;;;;8.20;4.87;;;;;;;;;;4347304;32;20320;-79
2022/07/16 05:19:35;;;;;;;16.35;4.53;;;;;;;;;;4360167;32;20769;-84
2022/07/16 05:22:01;;;;;;;6.53;3.60;;;;;;;;;;4359087;32;20230;-82
2022/07/16 05:24:27;;;;;;;8.20;4.00;;;;;;;;;;4360204;32;20579;-85
2022/07/16 05:26:53;;;;;;;6.32;4.12;;;;;;;;;;4346510;32;20304;-82
2022/07/16 05:29:19;;;;;;;12.23;4.28;;;;;;;;;;4360133;32;20222;-84
2022/07/16 05:31:45;;;;;;;6.82;4.37;;;;;;;;;;4346461;32;20623;-82
2022/07/16 05:34:11;;;;;;;11.05;5.05;;;;;;;;;;4360675;32;20305;-85
2022/07/16 05:36:37;;;;;;;8.48;4.07;;;;;;;;;;4358800;32;20217;-79
2022/07/16 05:39:03;;;;;;;8.45;4.28;;;;;;;;;;4359061;32;20215;-80
2022/07/16 05:41:28;;;;;;;6.35;3.92;;;;;;;;;;4359836;32;20611;-79
2022/07/16 05:43:54;;;;;;;8.23;4.47;;;;;;;;;;4359578;32;20195;-81
2022/07/16 05:46:20;;;;;;;5.40;3.75;;;;;;;;;;4359711;32;20202;-79
2022/07/16 05:48:46;;;;;;;6.80;3.50;;;;;;;;;;4359648;32;20223;-80
2022/07/16 05:51:11;;;;;;;13.00;5.30;;;;;;;;;;4358332;32;20230;-79
2022/07/16 05:53:38;;;;;;;9.23;3.90;;;;;;;;;;4359941;32;20193;-79
2022/07/16 05:56:04;;;;;;;7.45;4.22;;;;;;;;;;4359579;32;20599;-83
2022/07/16 05:58:30;;;;;;;6.40;4.18;;;;;;;;;;4346344;32;20567;-84
2022/07/16 06:00:56;;;;;;;10.40;3.90;;;;;;;;;;4346057;32;20770;-82
2022/07/16 06:03:22;;;;;;;8.50;4.25;;;;;;;;;;4359633;32;20273;-80
2022/07/16 06:05:47;;;;;;;9.30;3.85;;;;;;;;;;4359557;32;20190;-82
2022/07/16 06:08:13;;;;;;;4.95;3.58;;;;;;;;;;4358359;32;20246;-83
2022/07/16 06:10:39;;;;;;;10.15;4.20;;;;;;;;;;4359836;32;20264;-82
2022/07/16 06:13:05;;;;;;;12.50;4.15;;;;;;;;;;4359326;32;20601;-83
2022/07/16 06:15:32;;;;;;;7.70;3.87;;;;;;;;;;4359763;32;20194;-83
2022/07/16 06:17:58;;;;;;;7.57;3.90;;;;;;;;;;4359857;32;20695;-83
2022/07/16 06:20:24;;;;;;;5.55;3.03;;;;;;;;;;4359948;32;20198;-79
2022/07/16 06:22:54;;;;;;;14.32;3.62;;;;;;;;;;4359459;32;20279;-81
2022/07/16 06:25:20;;;;;;;8.23;3.33;;;;;;;;;;4359728;32;20544;-81
2022/07/16 06:27:46;;;;;;;21.30;4.18;;;;;;;;;;4359267;32;20577;-81
2022/07/16 06:30:14;;;;;;;8.30;2.83;;;;;;;;;;4358430;32;20240;-84
2022/07/16 06:32:40;;;;;;;4.57;3.28;;;;;;;;;;4345659;32;20559;-82
2022/07/16 06:35:07;;;;;;;6.95;2.80;;;;;;;;;;4359212;32;20586;-81
2022/07/16 06:37:35;;;;;;;6.32;3.12;;;;;;;;;;4358241;32;20522;-80
2022/07/16 06:40:01;;;;;;;4.28;2.45;;;;;;;;;;4359691;32;20695;-80
2022/07/16 06:42:26;;;;;;;3.47;2.30;;;;;;;;;;4360267;32;20559;-83
2022/07/16 06:44:52;;;;;;;3.37;2.45;;;;;;;;;;4359682;32;20257;-82
2022/07/16 06:47:18;;;;;;;7.35;2.35;;;;;;;;;;4359777;32;20249;-82
2022/07/16 06:49:44;;;;;;;6.93;3.22;;;;;;;;;;4359565;32;20336;-83
2022/07/16 06:52:10;;;;;;;4.57;2.78;;;;;;;;;;4359093;32;20307;-82
2022/07/16 06:54:36;;;;;;;6.47;2.85;;;;;;;;;;4359367;33;20489;-92
2022/07/16 06:57:03;;;;;;;3.70;2.17;;;;;;;;;;4359073;33;20301;-83
2022/07/16 06:59:29;;;;;;;6.47;3.20;;;;;;;;;;4358579;33;20570;-80
2022/07/16 07:01:55;;;;;;;2.80;2.55;;;;;;;;;;4357802;33;20606;-91
2022/07/16 07:04:24;;;;;;;5.47;2.72;;;;;;;;;;4358406;33;20520;-90
2022/07/16 07:06:50;;;;;;;5.80;3.15;;;;;;;;;;4358976;33;20582;-80
2022/07/16 07:09:17;;;;;;;7.65;2.42;;;;;;;;;;4345832;33;20644;-89
2022/07/16 07:11:43;;;;;;;2.72;2.25;;;;;;;;;;4345373;33;20591;-88
2022/07/16 07:14:10;;;;;;;7.25;2.20;;;;;;;;;;4344975;33;20574;-81
2022/07/16 07:16:36;;;;;;;3.53;2.42;;;;;;;;;;4345865;33;20754;-89
2022/07/16 07:19:03;;;;;;;5.20;3.08;;;;;;;;;;4359284;33;20608;-82
2022/07/16 07:21:29;;;;;;;4.00;2.50;;;;;;;;;;4358956;33;20559;-87
2022/07/16 07:23:55;;;;;;;6.78;2.78;;;;;;;;;;4360672;32;20382;-81
2022/07/16 07:26:21;;;;;;;3.75;2.47;;;;;;;;;;4362272;32;20631;-84
2022/07/16 07:28:47;;;;;;;5.45;2.45;;;;;;;;;;4362226;32;20297;-79
2022/07/16 07:31:14;;;;;;;4.28;3.03;;;;;;;;;;4362628;32;20351;-81
2022/07/16 07:33:40;;;;;;;3.50;2.47;;;;;;;;;;4336679;32;20555;-86
2022/07/16 07:36:06;;;;;;;4.28;2.70;;;;;;;;;;4362292;32;20773;-85
2022/07/16 07:38:32;;;;;;;7.05;2.33;;;;;;;;;;4361924;32;20623;-80
2022/07/16 07:40:59;;;;;;;10.25;2.62;;;;;;;;;;4361937;32;20194;-85
2022/07/16 07:43:33;;;;;;;3.90;2.65;;;;;;;;;;4362017;32;20704;-81
2022/07/16 07:46:00;;;;;;;2.90;2.35;;;;;;;;;;4348569;32;20557;-81
2022/07/16 07:48:26;;;;;;;3.60;2.50;;;;;;;;;;4361735;32;20199;-79
2022/07/16 07:50:52;;;;;;;7.65;3.05;;;;;;;;;;4361518;32;20308;-79
2022/07/16 07:53:17;;;;;;;6.12;3.10;;;;;;;;;;4361524;32;20245;-83
2022/07/16 07:55:43;;;;;;;5.00;2.47;;;;;;;;;;4361740;32;20245;-80
2022/07/16 07:58:09;;;;;;;4.53;2.80;;;;;;;;;;4361556;32;20647;-85
2022/07/16 08:00:35;;;;;;;11.52;2.78;;;;;;;;;;4347858;32;20356;-85
2022/07/16 08:03:01;;;;;;;4.00;2.62;;;;;;;;;;4361331;32;20222;-80
2022/07/16 08:05:27;;;;;;;4.00;2.60;;;;;;;;;;4361302;32;20198;-81
2022/07/16 08:07:53;;;;;;;5.30;3.25;;;;;;;;;;4361381;32;20585;-86
2022/07/16 08:10:19;;;;;;;8.55;3.47;;;;;;;;;;4361191;32;20638;-80
2022/07/16 08:12:46;;;;;;;4.05;2.83;;;;;;;;;;4361266;32;20639;-86
2022/07/16 08:15:12;;;;;;;8.25;2.75;;;;;;;;;;4361355;32;20611;-83
2022/07/16 08:17:39;;;;;;;7.75;3.58;;;;;;;;;;4347582;32;20571;-80
2022/07/16 08:20:07;;;;;;;7.00;3.65;;;;;;;;;;4361364;32;20584;-80
2022/07/16 08:22:33;;;;;;;5.10;3.03;;;;;;;;;;4361154;32;20632;-80
2022/07/16 08:27:42;;;;;;;6.35;3.87;;;;;;;;;;4361208;32;20261;-81
2022/07/16 08:30:09;;;;;;;7.25;4.05;;;;;;;;;;4361209;32;20647;-81
2022/07/16 08:32:35;;;;;;;8.55;3.53;;;;;;;;;;4361026;32;20556;-81
2022/07/16 08:35:01;;;;;;;10.38;4.30;;;;;;;;;;4360271;32;20536;-84
2022/07/16 08:37:35;;;;;;;9.70;3.90;;;;;;;;;;4361157;32;20608;-84
2022/07/16 08:40:04;;;;;;;7.72;4.07;;;;;;;;;;4361020;32;20658;-80
2022/07/16 08:42:33;;;;;;;7.05;3.50;;;;;;;;;;4360934;32;20647;-81
2022/07/16 08:44:59;;;;;;;6.87;3.08;;;;;;;;;;4359860;32;20636;-84
2022/07/16 08:47:26;;;;;;;6.07;3.00;;;;;;;;;;4360841;32;20694;-81
2022/07/16 08:49:54;;;;;;;4.12;3.15;;;;;;;;;;4359993;32;20611;-79
2022/07/16 08:52:21;;;;;;;5.07;2.15;;;;;;;;;;4360955;32;20571;-81
2022/07/16 08:54:48;;;;;;;4.62;2.25;;;;;;;;;;4360901;32;20563;-85
2022/07/16 08:57:15;;;;;;;4.35;2.40;;;;;;;;;;4361102;32;20618;-85
2022/07/16 08:59:41;;;;;;;3.35;2.55;;;;;;;;;;4361100;32;20642;-86
2022/07/16 09:02:07;;;;;;;3.75;3.00;;;;;;;;;;4360255;32;20726;-80
2022/07/16 09:04:33;;;;;;;5.53;2.70;;;;;;;;;;4347342;32;20553;-81
2022/07/16 09:06:59;;;;;;;4.30;3.00;;;;;;;;;;4360796;32;20309;-85
2022/07/16 09:09:24;;;;;;;7.07;2.87;;;;;;;;;;4360852;32;20218;-81
2022/07/16 09:11:50;;;;;;;5.62;3.40;;;;;;;;;;4360634;32;20226;-84
2022/07/16 09:14:18;;;;;;;6.10;2.55;;;;;;;;;;4360848;32;20270;-82
2022/07/16 09:16:54;;;;;;;4.22;2.90;;;;;;;;;;4360737;32;20607;-80
2022/07/16 09:19:29;;;;;;;3.53;2.17;;;;;;;;;;4359664;32;20590;-84
2022/07/16 09:22:10;;;;;;;6.35;2.83;;;;;;;;;;4360924;32;20863;-80
2022/07/16 09:24:45;;;;;;;7.18;2.62;;;;;;;;;;4360718;32;20658;-81
2022/07/16 09:27:25;;;;;;;2.30;1.85;;;;;;;;;;4360896;32;20496;-88
2022/07/16 09:29:54;;;;;;;4.85;2.42;;;;;;;;;;4360809;32;20622;-86
2022/07/16 09:32:32;;;;;;;4.62;2.33;;;;;;;;;;4360510;32;20746;-81
2022/07/16 09:35:02;;;;;;;6.82;1.98;;;;;;;;;;4360413;32;20604;-84
2022/07/16 09:37:51;;;;;;;3.28;2.12;;;;;;;;;;4360766;32;20604;-82
2022/07/16 09:40:38;;;;;;;3.58;2.65;;;;;;;;;;4360606;32;20594;-80
2022/07/16 09:43:17;;;;;;;6.12;2.50;;;;;;;;;;4360425;32;20556;-81
2022/07/16 09:45:58;;;;;;;3.58;1.70;;;;;;;;;;4360104;32;20654;-83
2022/07/16 09:48:35;;;;;;;3.30;1.85;;;;;;;;;;4359614;32;20533;-81
2022/07/16 09:51:18;;;;;;;2.25;1.73;;;;;;;;;;4360335;32;20599;-85
2022/07/16 09:53:46;;;;;;;6.87;2.03;;;;;;;;;;4360347;32;20652;-82
2022/07/16 09:56:16;;;;;;;3.65;1.30;;;;;;;;;;4360165;32;20678;-80
2022/07/16 09:58:47;;;;;;;2.25;1.65;;;;;;;;;;4359938;32;20536;-81
2022/07/16 10:01:14;;;;;;;3.58;1.80;;;;;;;;;;4360223;32;20604;-82
2022/07/16 10:03:40;;;;;;;7.28;2.20;;;;;;;;;;4360314;32;20560;-84
2022/07/16 10:06:08;;;;;;;5.57;2.08;;;;;;;;;;4360010;32;20758;-80
2022/07/16 10:08:34;;;;;;;2.70;1.50;;;;;;;;;;4360021;32;20612;-81
2022/07/16 10:11:01;;;;;;;2.65;1.77;;;;;;;;;;4346712;32;20595;-81
2022/07/16 10:13:28;;;;;;;2.42;1.95;;;;;;;;;;4359979;32;20543;-85
2022/07/16 10:15:54;;;;;;;8.45;2.50;;;;;;;;;;4360013;32;20595;-81
2022/07/16 10:18:37;;;;;;;3.35;1.70;;;;;;;;;;4359771;32;20607;-86
2022/07/16 10:21:13;;;;;;;4.32;2.22;;;;;;;;;;4359788;32;20619;-80
2022/07/16 10:23:42;;;;;;;3.12;1.85;;;;;;;;;;4359717;32;20662;-83
2022/07/16 10:26:20;;;;;;;10.45;1.80;;;;;;;;;;4359766;32;20592;-81
2022/07/16 10:28:51;;;;;;;2.65;1.62;;;;;;;;;;4358409;32;20643;-82
2022/07/16 10:34:46;;;;;;;5.18;1.98;;;;;;;;;;4348578;32;20459;-81
2022/07/16 10:37:25;;;;;;;6.00;1.70;;;;;;;;;;4359356;32;20215;-81
2022/07/16 10:40:07;;;;;;;4.60;1.62;;;;;;;;;;4358569;32;20632;-82
2022/07/16 10:42:34;;;;;;;8.77;1.90;;;;;;;;;;4359391;32;20621;-81
2022/07/16 10:45:00;;;;;;;2.97;1.40;;;;;;;;;;4359513;32;20585;-81
2022/07/16 10:47:49;;;;;;;3.90;2.03;;;;;;;;;;4333601;32;20385;-86
2022/07/16 10:50:20;;;;;;;1.90;1.50;;;;;;;;;;4359734;32;20647;-84
2022/07/16 10:52:48;;;;;;;6.12;1.52;;;;;;;;;;4358258;32;20697;-81
2022/07/16 10:55:32;;;;;;;1.65;1.30;;;;;;;;;;4359380;33;20639;-81
2022/07/16 10:58:00;;;;;;;4.37;1.52;;;;;;;;;;4360462;32;20531;-83
2022/07/16 11:00:26;;;;;;;3.55;1.48;;;;;;;;;;4364312;32;20669;-82
2022/07/16 11:02:58;;;;;;;6.50;1.50;;;;;;;;;;4364289;32;20552;-86
2022/07/16 11:05:26;;;;;;;1.98;1.62;;;;;;;;;;4350841;32;20727;-87
2022/07/16 11:07:51;;;;;;;1.67;1.37;;;;;;;;;;4364638;32;20593;-82
2022/07/16 11:10:23;;;;;;;3.35;1.33;;;;;;;;;;4364370;32;20249;-82
2022/07/16 11:12:50;;;;;;;8.23;2.25;;;;;;;;;;4364406;32;20596;-81
2022/07/16 11:15:17;;;;;;;1.75;1.40;;;;;;;;;;4363556;32;20579;-82
2022/07/16 11:17:53;;;;;;;3.97;2.15;;;;;;;;;;4364086;32;20600;-82
2022/07/16 11:20:20;;;;;;;3.15;1.55;;;;;;;;;;4364690;32;20606;-81
2022/07/16 11:22:46;;;;;;;2.62;1.37;;;;;;;;;;4363127;32;20665;-81
2022/07/16 11:25:11;;;;;;;3.15;1.67;;;;;;;;;;4364136;32;20244;-84
2022/07/16 11:27:39;;;;;;;2.90;1.85;;;;;;;;;;4364393;32;20222;-82
2022/07/16 11:30:10;;;;;;;2.75;1.67;;;;;;;;;;4367800;32;20615;-81
2022/07/16 11:32:44;;;;;;;1.87;1.62;;;;;;;;;;4367601;32;20303;-81
2022/07/16 11:35:11;;;;;;;2.53;1.20;;;;;;;;;;4365714;32;20711;-81
2022/07/16 11:37:47;;;;;;;1.90;1.67;;;;;;;;;;4354139;32;20564;-85
2022/07/16 11:40:14;;;;;;;4.62;1.70;;;;;;;;;;4364995;32;20716;-81
2022/07/16 11:42:57;;;;;;;5.43;1.65;;;;;;;;;;4366783;32;20583;-82
2022/07/16 11:45:23;;;;;;;2.22;1.42;;;;;;;;;;4356408;32;20670;-80
2022/07/16 11:48:14;;;;;;;2.92;1.80;;;;;;;;;;4366602;32;20191;-86
2022/07/16 11:50:42;;;;;;;1.90;1.67;;;;;;;;;;4365433;32;20715;-82
2022/07/16 11:53:08;;;;;;;2.60;1.42;;;;;;;;;;4367337;32;20194;-84
2022/07/16 11:55:40;;;;;;;2.08;1.75;;;;;;;;;;4366607;32;20598;-82
2022/07/16 11:58:07;;;;;;;1.77;1.30;;;;;;;;;;4366970;32;20679;-84
2022/07/16 12:00:53;;;;;;;5.25;1.30;;;;;;;;;;4368745;32;20583;-85
2022/07/16 12:03:19;;;;;;;2.42;1.30;;;;;;;;;;4368983;32;20539;-86
2022/07/16 12:05:45;;;;;;;1.52;1.30;;;;;;;;;;4366593;32;20597;-85
2022/07/16 12:08:11;;;;;;;2.08;1.55;;;;;;;;;;4367677;32;20281;-81
2022/07/16 12:10:38;;;;;;;2.62;1.12;;;;;;;;;;4362156;32;20536;-85
2022/07/16 12:13:09;;;;;;;1.80;1.05;;;;;;;;;;4360709;32;20643;-85
2022/07/16 12:15:59;;;;;;;4.07;1.33;;;;;;;;;;4347891;32;20548;-82
2022/07/16 12:18:26;;;;;;;4.15;1.67;;;;;;;;;;4361630;32;20246;-86
2022/07/16 12:20:52;;;;;;;6.80;1.60;;;;;;;;;;4347780;32;20655;-83
2022/07/16 12:23:32;;;;;;;9.57;1.70;;;;;;;;;;4347895;32;20611;-85
2022/07/16 12:26:03;;;;;;;6.05;1.05;;;;;;;;;;4361341;32;20646;-82
2022/07/16 12:28:30;;;;;;;2.45;1.00;;;;;;;;;;4361375;32;20585;-82
2022/07/16 12:30:57;;;;;;;3.37;1.80;;;;;;;;;;4360969;32;20629;-80
2022/07/16 12:33:28;;;;;;;9.57;1.75;;;;;;;;;;4348005;32;20636;-85
2022/07/16 12:36:02;;;;;;;4.80;1.48;;;;;;;;;;4361242;32;20596;-81
2022/07/16 12:38:55;;;;;;;2.55;1.70;;;;;;;;;;4361441;32;20638;-82
2022/07/16 12:41:33;;;;;;;8.77;1.75;;;;;;;;;;4361299;32;20679;-81
2022/07/16 12:44:04;;;;;;;3.30;1.48;;;;;;;;;;4361018;32;20611;-79
2022/07/16 12:46:51;;;;;;;4.28;1.83;;;;;;;;;;4360973;32;20669;-82
2022/07/16 12:49:23;;;;;;;4.60;1.80;;;;;;;;;;4360828;32;20627;-86
2022/07/16 12:51:51;;;;;;;7.62;1.70;;;;;;;;;;4359678;32;20646;-86
2022/07/16 12:54:19;;;;;;;3.08;2.00;;;;;;;;;;4360862;32;20505;-81
2022/07/16 12:59:32;;;;;;;7.25;1.75;;;;;;;;;;4359986;32;20201;-80
2022/07/16 13:01:58;;;;;;;4.70;1.95;;;;;;;;;;4360596;32;20553;-81
2022/07/16 13:04:27;;;;;;;2.65;1.45;;;;;;;;;;4360839;32;20236;-85
2022/07/16 13:06:53;;;;;;;5.57;2.05;;;;;;;;;;4347216;32;20687;-81
2022/07/16 13:09:21;;;;;;;3.25;1.55;;;;;;;;;;4346895;32;20632;-81
2022/07/16 13:11:47;;;;;;;4.12;1.58;;;;;;;;;;4359447;32;20587;-81
2022/07/16 13:14:13;;;;;;;2.33;1.50;;;;;;;;;;4360871;32;20587;-81
2022/07/16 13:16:40;;;;;;;5.53;1.75;;;;;;;;;;4360634;32;20543;-84
2022/07/16 13:19:07;;;;;;;3.85;1.92;;;;;;;;;;4360320;32;20745;-84
2022/07/16 13:21:34;;;;;;;2.87;1.30;;;;;;;;;;4360104;32;20673;-80
2022/07/16 13:24:03;;;;;;;4.60;1.75;;;;;;;;;;4359348;32;20673;-85
2022/07/16 13:26:31;;;;;;;2.97;1.70;;;;;;;;;;4359875;32;20501;-82
2022/07/16 13:28:57;;;;;;;4.62;1.95;;;;;;;;;;4360197;32;20508;-81
2022/07/16 13:31:24;;;;;;;3.62;1.17;;;;;;;;;;4360545;32;20525;-84
2022/07/16 13:33:52;;;;;;;5.35;1.75;;;;;;;;;;4360380;32;20548;-82
2022/07/16 13:36:19;;;;;;;5.68;1.83;;;;;;;;;;4359413;32;20505;-86
2022/07/16 13:38:45;;;;;;;5.57;1.75;;;;;;;;;;4346523;32;20626;-80
2022/07/16 13:41:13;;;;;;;3.33;1.62;;;;;;;;;;4359587;32;20525;-85
2022/07/16 13:43:40;;;;;;;7.37;1.65;;;;;;;;;;4360087;32;20611;-82
2022/07/16 13:46:08;;;;;;;2.28;1.15;;;;;;;;;;4346438;32;20673;-81
2022/07/16 13:48:35;;;;;;;1.30;0.98;;;;;;;;;;4360013;32;20685;-84
2022/07/16 13:51:01;;;;;;;3.30;1.48;;;;;;;;;;4359987;32;20516;-81
2022/07/16 13:53:27;;;;;;;4.45;1.65;;;;;;;;;;4360010;32;20561;-81
2022/07/16 13:55:53;;;;;;;2.80;1.52;;;;;;;;;;4359958;32;20240;-86
2022/07/16 13:58:21;;;;;;;3.20;1.73;;;;;;;;;;4359696;32;20690;-82
2022/07/16 14:00:59;;;;;;;1.90;1.20;;;;;;;;;;4346276;32;20533;-81
2022/07/16 14:03:26;;;;;;;1.20;1.05;;;;;;;;;;4359765;32;20718;-86
2022/07/16 14:06:01;;;;;;;5.10;1.45;;;;;;;;;;4346680;32;20563;-81
2022/07/16 14:08:27;;;;;;;3.60;1.70;;;;;;;;;;4359743;32;20659;-84
2022/07/16 14:10:53;;;;;;;1.75;1.40;;;;;;;;;;4359852;32;20577;-80
2022/07/16 14:13:20;;;;;;;2.45;1.62;;;;;;;;;;4359592;32;20647;-80
2022/07/16 14:15:46;;;;;;;4.45;1.73;;;;;;;;;;4346021;32;20560;-80
2022/07/16 14:18:12;;;;;;;3.83;1.10;;;;;;;;;;4359410;32;20576;-80
2022/07/16 14:20:40;;;;;;;6.20;1.98;;;;;;;;;;4359469;32;20641;-80
2022/07/16 14:23:07;;;;;;;3.17;2.40;;;;;;;;;;4358069;32;20669;-85
2022/07/16 14:25:36;;;;;;;2.42;1.60;;;;;;;;;;4359951;32;20543;-84
2022/07/16 14:28:03;;;;;;;3.12;1.90;;;;;;;;;;4359237;32;20709;-82
2022/07/16 14:30:29;;;;;;;1.37;1.25;;;;;;;;;;4359653;32;20512;-82
2022/07/16 14:32:55;;;;;;;7.50;1.45;;;;;;;;;;4358517;32;21021;-81
2022/07/16 14:35:21;;;;;;;4.07;1.50;;;;;;;;;;4345701;32;20611;-81
2022/07/16 14:37:47;;;;;;;3.60;1.73;;;;;;;;;;4359171;32;20298;-81
2022/07/16 14:40:16;;;;;;;4.85;2.00;;;;;;;;;;4359249;32;20599;-81
2022/07/16 14:42:45;;;;;;;5.78;2.05;;;;;;;;;;4345357;32;20697;-85
2022/07/16 14:45:33;;;;;;;2.45;1.85;;;;;;;;;;4359372;32;20592;-80
2022/07/16 14:47:59;;;;;;;2.42;1.58;;;;;;;;;;4358991;32;20653;-84
2022/07/16 14:50:25;;;;;;;5.18;2.10;;;;;;;;;;4357930;32;20222;-80
2022/07/16 14:52:51;;;;;;;8.20;2.47;;;;;;;;;;4345791;32;20256;-81
2022/07/16 14:55:17;;;;;;;4.22;2.05;;;;;;;;;;4359395;32;20555;-81
2022/07/16 14:57:45;;;;;;;3.15;1.67;;;;;;;;;;4357840;33;20222;-80